Friedman Memorial Airport Hailey US
ICAO: KSUN
IATA: SUN
Category: Medium
Scheduled Services: Yes

Elevation: 5318 ft
TransAlt. 18000 ft.

Airport Communications:
ATIS:128.225
AWOS:128.225
SALT LAKE CITY CNTR:118.05
CTAF:125.6
GND:121.7
BOISE RDO:122.4
HAILEY TWR:125.6
UNICOM:122.95

KSUN Zoom In..

If Map Doesn't Load, Click Here

Runways:

(A) RW 13 length 7550 ft width 100 ft
---- / hdg 129

(B) RW 31 length 7550 ft width 100 ft
---- / hdg 309

Location; KSUN
Day. 21 / Time. 13.35 Zulu
* Altimeter: 30.25
* Temperature: 02° c. 35.6°f.
* Wind from: 310° Speed 08 kn.
Dewpoint: -06° c.
Visibility: 10 Statute Miles.
Clouds: Clear (automated report).

KSUN 211335Z AUTO 31008KT 10SM CLR 02/M06 A3025 RMK AO2


Wind From 310°
Speed 08 kn.

 
 
jpsmedia.com for Web Design worldairports.se 2018   terms of use